createdAt,value
2024-02-02T00:01:49.696Z,6.40
2024-02-02T00:04:17.937Z,5.80
2024-02-02T00:06:46.652Z,5.40
2024-02-02T00:09:16.607Z,5.03
2024-02-02T00:11:45.334Z,5.63
2024-02-02T00:14:13.780Z,5.53
2024-02-02T00:16:42.323Z,5.80
2024-02-02T00:19:12.469Z,5.63
2024-02-02T00:21:41.237Z,5.30
2024-02-02T00:24:10.140Z,5.50
2024-02-02T00:26:38.517Z,6.18
2024-02-02T00:29:06.954Z,5.38
2024-02-02T00:31:36.324Z,6.13
2024-02-02T00:34:04.793Z,5.97
2024-02-02T00:36:34.666Z,5.20
2024-02-02T00:39:03.120Z,6.07
2024-02-02T00:41:31.518Z,5.65
2024-02-02T00:43:59.894Z,5.28
2024-02-02T00:46:29.959Z,5.75
2024-02-02T00:48:58.248Z,5.90
2024-02-02T00:51:26.758Z,5.93
2024-02-02T00:53:56.507Z,5.47
2024-02-02T00:56:26.019Z,5.65
2024-02-02T00:58:54.481Z,6.18
2024-02-02T01:01:22.771Z,5.85
2024-02-02T01:03:52.978Z,6.50
2024-02-02T01:06:21.287Z,6.30
2024-02-02T01:08:49.784Z,6.07
2024-02-02T01:11:20.789Z,5.20
2024-02-02T01:13:49.103Z,5.40
2024-02-02T01:16:17.695Z,5.95
2024-02-02T01:18:46.429Z,5.63
2024-02-02T01:21:15.093Z,5.22
2024-02-02T01:23:43.504Z,5.65
2024-02-02T01:26:12.493Z,5.10
2024-02-02T01:28:43.625Z,5.60
2024-02-02T01:31:11.992Z,5.07
2024-02-02T01:33:40.490Z,4.78
2024-02-02T01:36:09.080Z,4.85
2024-02-02T01:38:37.373Z,5.32
2024-02-02T01:41:06.448Z,4.43
2024-02-02T01:43:34.649Z,4.53
2024-02-02T01:46:05.054Z,4.15
2024-02-02T01:48:33.506Z,5.00
2024-02-02T01:51:01.812Z,4.75
2024-02-02T01:53:30.065Z,5.07
2024-02-02T01:55:58.352Z,5.43
2024-02-02T01:58:27.365Z,4.90
2024-02-02T02:00:55.881Z,4.63
2024-02-02T02:03:25.867Z,3.65
2024-02-02T02:05:54.516Z,4.32
2024-02-02T02:08:22.907Z,3.28
2024-02-02T02:10:51.445Z,3.78
2024-02-02T02:13:20.615Z,3.22
2024-02-02T02:15:49.191Z,3.38
2024-02-02T02:18:17.785Z,3.65
2024-02-02T02:20:50.259Z,3.25
2024-02-02T02:23:19.989Z,3.25
2024-02-02T02:25:48.483Z,3.55
2024-02-02T02:28:19.616Z,3.58
2024-02-02T02:30:48.708Z,3.65
2024-02-02T02:33:17.379Z,3.45
2024-02-02T02:35:45.981Z,3.08
2024-02-02T02:38:14.315Z,3.30
2024-02-02T02:40:44.593Z,3.10
2024-02-02T02:43:12.848Z,3.20
2024-02-02T02:45:41.920Z,3.00
2024-02-02T02:48:10.577Z,3.10
2024-02-02T02:50:39.300Z,3.40
2024-02-02T02:53:08.293Z,2.65
2024-02-02T02:55:36.891Z,2.83
2024-02-02T02:58:06.731Z,2.65
2024-02-02T03:00:35.167Z,2.95
2024-02-02T03:03:03.620Z,2.58
2024-02-02T03:05:31.335Z,2.95
2024-02-02T03:07:59.459Z,2.75
2024-02-02T03:10:27.975Z,2.65
2024-02-02T03:12:56.776Z,2.83
2024-02-02T03:15:26.982Z,3.05
2024-02-02T03:17:55.544Z,3.42
2024-02-02T03:20:27.911Z,4.03
2024-02-02T03:22:56.690Z,3.63
2024-02-02T03:25:26.514Z,3.92
2024-02-02T03:27:54.829Z,3.90
2024-02-02T03:30:22.988Z,3.00
2024-02-02T03:32:52.952Z,3.70
2024-02-02T03:35:21.495Z,3.35
2024-02-02T03:37:50.044Z,3.03
2024-02-02T03:40:18.509Z,2.75
2024-02-02T03:42:46.675Z,3.15
2024-02-02T03:45:16.399Z,2.72
2024-02-02T03:47:47.762Z,3.40
2024-02-02T03:50:19.155Z,3.05
2024-02-02T03:52:57.867Z,3.15
2024-02-02T03:55:27.199Z,2.92
2024-02-02T03:57:57.930Z,2.55
2024-02-02T04:00:26.178Z,2.72
2024-02-02T04:02:55.709Z,2.42
2024-02-02T04:05:25.609Z,2.05
2024-02-02T04:07:54.136Z,2.03
2024-02-02T04:10:22.427Z,2.20
2024-02-02T04:12:51.288Z,2.05
2024-02-02T04:15:19.622Z,1.73
2024-02-02T04:17:48.481Z,1.75
2024-02-02T04:20:18.096Z,1.92
2024-02-02T04:22:50.207Z,1.70
2024-02-02T04:25:24.483Z,1.73
2024-02-02T04:27:53.972Z,1.80
2024-02-02T04:30:23.931Z,1.50
2024-02-02T04:32:54.283Z,1.45
2024-02-02T04:35:31.253Z,1.40
2024-02-02T04:38:02.177Z,1.20
2024-02-02T04:40:30.550Z,1.20
2024-02-02T04:43:01.017Z,1.38
2024-02-02T04:45:31.565Z,1.10
2024-02-02T04:48:01.311Z,1.02
2024-02-02T04:50:30.979Z,0.95
2024-02-02T04:53:04.993Z,0.90
2024-02-02T04:55:33.357Z,0.90
2024-02-02T04:58:01.858Z,0.80
2024-02-02T05:00:30.186Z,0.80
2024-02-02T05:02:58.700Z,0.68
2024-02-02T05:05:27.232Z,0.68
2024-02-02T05:07:55.693Z,0.65
2024-02-02T05:10:25.338Z,0.70
2024-02-02T05:12:53.695Z,0.70
2024-02-02T05:15:22.119Z,0.70
2024-02-02T05:17:50.280Z,0.85
2024-02-02T05:20:18.475Z,0.70
2024-02-02T05:22:46.835Z,0.60
2024-02-02T05:25:15.587Z,0.52
2024-02-02T05:27:45.767Z,0.50
2024-02-02T05:30:14.473Z,0.60
2024-02-02T05:32:43.186Z,0.60
2024-02-02T05:35:11.653Z,0.63
2024-02-02T05:37:40.134Z,0.70
2024-02-02T05:40:09.601Z,0.70
2024-02-02T05:42:38.176Z,0.77
2024-02-02T05:45:08.709Z,0.70
2024-02-02T05:47:37.064Z,0.70
2024-02-02T05:50:05.683Z,0.50
2024-02-02T05:52:34.078Z,0.50
2024-02-02T05:55:02.561Z,0.77
2024-02-02T05:57:30.784Z,0.50
2024-02-02T05:59:59.059Z,0.40
2024-02-02T06:02:29.070Z,0.50
2024-02-02T06:04:57.581Z,0.45
2024-02-02T06:07:26.115Z,0.50
2024-02-02T06:09:54.601Z,0.52
2024-02-02T06:12:22.820Z,0.40
2024-02-02T06:14:51.320Z,0.60
2024-02-02T06:17:19.596Z,0.47
2024-02-02T06:19:49.574Z,0.60
2024-02-02T06:22:21.404Z,0.50
2024-02-02T06:24:49.627Z,0.60
2024-02-02T06:27:18.153Z,1.05
2024-02-02T06:29:46.321Z,0.57
2024-02-02T06:32:14.726Z,0.50
2024-02-02T06:34:43.355Z,0.60
2024-02-02T06:37:13.133Z,0.50
2024-02-02T06:39:41.335Z,0.75
2024-02-02T06:42:09.952Z,0.50
2024-02-02T06:44:38.100Z,0.40
2024-02-02T06:47:06.657Z,0.50
2024-02-02T06:49:34.975Z,0.50
2024-02-02T06:52:03.238Z,0.77
2024-02-02T06:54:33.255Z,0.50
2024-02-02T06:57:01.607Z,0.60
2024-02-02T06:59:30.261Z,0.50
2024-02-02T07:01:59.182Z,0.50
2024-02-02T07:04:28.547Z,0.50
2024-02-02T07:06:56.844Z,0.52
2024-02-02T07:09:28.174Z,0.55
2024-02-02T07:12:00.767Z,0.50
2024-02-02T07:14:38.391Z,0.80
2024-02-02T07:17:14.483Z,0.50
2024-02-02T07:19:44.368Z,0.50
2024-02-02T07:22:22.924Z,0.60
2024-02-02T07:24:51.567Z,0.77
2024-02-02T07:27:34.615Z,0.55
2024-02-02T07:30:03.065Z,0.68
2024-02-02T07:32:31.974Z,0.60
2024-02-02T07:35:00.222Z,0.57
2024-02-02T07:37:36.030Z,0.57
2024-02-02T07:40:06.145Z,0.60
2024-02-02T07:42:47.656Z,0.50
2024-02-02T07:45:16.865Z,0.60
2024-02-02T07:47:46.065Z,0.60
2024-02-02T07:50:14.325Z,0.50
2024-02-02T07:52:43.767Z,0.50
2024-02-02T07:55:12.061Z,0.70
2024-02-02T07:57:41.882Z,0.80
2024-02-02T08:00:10.797Z,0.80
2024-02-02T08:02:39.050Z,0.60
2024-02-02T08:05:09.556Z,0.52
2024-02-02T08:07:37.727Z,0.80
2024-02-02T08:10:08.701Z,0.60
2024-02-02T08:12:39.338Z,0.75
2024-02-02T08:15:10.472Z,0.65
2024-02-02T08:17:38.786Z,0.70
2024-02-02T08:20:08.005Z,0.73
2024-02-02T08:22:36.970Z,0.73
2024-02-02T08:25:05.943Z,0.90
2024-02-02T08:27:34.064Z,0.60
2024-02-02T08:30:02.618Z,0.63
2024-02-02T08:32:34.654Z,0.80
2024-02-02T08:35:04.293Z,0.75
2024-02-02T08:37:35.283Z,0.70
2024-02-02T08:40:03.562Z,0.70
2024-02-02T08:42:33.108Z,0.50
2024-02-02T08:45:02.448Z,0.75
2024-02-02T08:47:36.185Z,0.77
2024-02-02T08:50:06.148Z,0.68
2024-02-02T08:52:35.716Z,0.60
2024-02-02T08:55:08.055Z,0.68
2024-02-02T08:57:37.024Z,0.77
2024-02-02T09:00:16.855Z,0.63
2024-02-02T09:03:06.504Z,0.60
2024-02-02T09:05:49.256Z,0.60
2024-02-02T09:08:28.070Z,0.50
2024-02-02T09:11:20.770Z,0.43
2024-02-02T09:13:49.713Z,0.60
2024-02-02T09:16:18.786Z,0.60
2024-02-02T09:18:55.752Z,0.40
2024-02-02T09:21:32.958Z,0.47
2024-02-02T09:24:01.967Z,0.50
2024-02-02T09:26:38.425Z,0.50
2024-02-02T09:29:06.724Z,0.50
2024-02-02T09:31:39.022Z,0.70
2024-02-02T09:34:10.778Z,0.60
2024-02-02T09:36:42.009Z,0.45
2024-02-02T09:39:26.233Z,0.65
2024-02-02T09:42:05.630Z,0.75
2024-02-02T09:44:51.489Z,0.50
2024-02-02T09:47:25.705Z,0.40
2024-02-02T09:50:04.616Z,0.85
2024-02-02T09:52:40.915Z,0.40
2024-02-02T09:55:15.340Z,0.70
2024-02-02T09:57:47.598Z,0.52
2024-02-02T10:00:18.290Z,0.43
2024-02-02T10:02:54.421Z,0.47
2024-02-02T10:05:29.770Z,0.50
2024-02-02T10:08:09.113Z,0.50
2024-02-02T10:10:52.289Z,0.90
2024-02-02T10:13:26.653Z,0.50
2024-02-02T10:16:02.954Z,0.40
2024-02-02T10:18:52.696Z,0.40
2024-02-02T10:21:30.371Z,0.40
2024-02-02T10:24:15.576Z,0.40
2024-02-02T10:26:58.407Z,0.35
2024-02-02T10:29:31.589Z,0.40
2024-02-02T10:32:10.143Z,0.50
2024-02-02T10:34:47.246Z,0.40
2024-02-02T10:37:25.517Z,0.50
2024-02-02T10:40:02.448Z,0.40
2024-02-02T10:42:37.157Z,0.43
2024-02-02T10:45:10.131Z,0.50
2024-02-02T10:47:45.107Z,0.40
2024-02-02T10:50:20.956Z,0.30
2024-02-02T10:53:00.746Z,0.40
2024-02-02T10:55:40.279Z,0.35
2024-02-02T10:58:15.978Z,0.20
2024-02-02T11:00:47.946Z,0.40
2024-02-02T11:03:23.443Z,0.43
2024-02-02T11:05:55.443Z,0.40
2024-02-02T11:08:24.807Z,0.43
2024-02-02T11:10:58.882Z,0.40
2024-02-02T11:13:33.173Z,0.40
2024-02-02T11:16:09.409Z,0.40
2024-02-02T11:18:46.226Z,0.50
2024-02-02T11:21:24.281Z,0.40
2024-02-02T11:23:57.754Z,0.40
2024-02-02T11:26:29.081Z,0.38
2024-02-02T11:29:05.874Z,0.35
2024-02-02T11:31:39.738Z,0.30
2024-02-02T11:34:14.749Z,0.30
2024-02-02T11:36:52.345Z,0.30
2024-02-02T11:39:26.595Z,0.40
2024-02-02T11:41:56.436Z,0.30
2024-02-02T11:44:25.522Z,0.40
2024-02-02T11:46:54.874Z,0.30
2024-02-02T11:49:25.577Z,0.35
2024-02-02T11:51:55.613Z,0.70
2024-02-02T11:54:27.660Z,0.40
2024-02-02T11:56:59.264Z,0.40
2024-02-02T11:59:28.981Z,0.40
2024-02-02T12:02:04.532Z,0.32
2024-02-02T12:04:39.425Z,0.30
2024-02-02T12:07:14.050Z,0.30
2024-02-02T12:09:44.903Z,0.43
2024-02-02T12:12:17.600Z,0.30
2024-02-02T12:14:49.201Z,0.30
2024-02-02T12:17:19.203Z,0.30
2024-02-02T12:19:48.450Z,0.30
2024-02-02T12:22:16.979Z,0.30
2024-02-02T12:24:45.565Z,0.40
2024-02-02T12:27:16.055Z,0.40
2024-02-02T12:29:44.648Z,0.80
2024-02-02T12:32:14.811Z,0.93
2024-02-02T12:34:44.002Z,0.35
2024-02-02T12:37:12.184Z,0.55
2024-02-02T12:39:40.877Z,0.43
2024-02-02T12:42:10.273Z,1.10
2024-02-02T12:44:40.121Z,0.82
2024-02-02T12:47:08.563Z,0.45
2024-02-02T12:49:38.659Z,0.65
2024-02-02T12:52:07.916Z,0.45
2024-02-02T12:54:36.604Z,0.50
2024-02-02T12:57:06.370Z,0.70
2024-02-02T12:59:34.779Z,0.60
2024-02-02T13:02:06.536Z,0.85
2024-02-02T13:04:36.182Z,0.47
2024-02-02T13:07:05.918Z,0.57
2024-02-02T13:09:34.739Z,0.68
2024-02-02T13:12:03.896Z,0.43
2024-02-02T13:14:33.383Z,0.40
2024-02-02T13:17:08.114Z,0.50
2024-02-02T13:19:40.866Z,0.47
2024-02-02T13:22:19.208Z,0.30
2024-02-02T13:24:49.022Z,0.50
2024-02-02T13:27:23.347Z,0.55
2024-02-02T13:29:54.497Z,0.65
2024-02-02T13:32:26.358Z,0.82
2024-02-02T13:34:56.437Z,0.60
2024-02-02T13:37:38.254Z,0.43
2024-02-02T13:40:11.358Z,0.50
2024-02-02T13:42:41.072Z,0.40
2024-02-02T13:45:12.183Z,0.57
2024-02-02T13:47:43.543Z,0.60
2024-02-02T13:50:17.641Z,0.60
2024-02-02T13:52:51.288Z,0.88
2024-02-02T13:55:22.174Z,0.70
2024-02-02T13:57:50.843Z,0.55
2024-02-02T14:00:19.820Z,0.50
2024-02-02T14:02:49.687Z,0.40
2024-02-02T14:05:18.378Z,0.47
2024-02-02T14:07:56.087Z,0.40
2024-02-02T14:10:24.365Z,0.50
2024-02-02T14:12:53.055Z,1.20
2024-02-02T14:15:23.731Z,0.60
2024-02-02T14:18:01.793Z,0.40
2024-02-02T14:20:30.081Z,0.60
2024-02-02T14:22:58.239Z,0.50
2024-02-02T14:25:30.925Z,0.50
2024-02-02T14:27:59.410Z,0.40
2024-02-02T14:30:29.742Z,0.68
2024-02-02T14:33:09.894Z,0.75
2024-02-02T14:35:46.143Z,0.68
2024-02-02T14:38:14.348Z,0.90
2024-02-02T14:40:42.487Z,0.50
2024-02-02T14:43:11.309Z,0.50
2024-02-02T14:45:39.770Z,0.63
2024-02-02T14:48:12.701Z,0.60
2024-02-02T14:50:41.149Z,0.40
2024-02-02T14:53:09.424Z,0.70
2024-02-02T14:55:37.745Z,0.40
2024-02-02T14:58:06.930Z,1.08
2024-02-02T15:00:42.450Z,0.75
2024-02-02T15:03:12.721Z,1.92
2024-02-02T15:05:41.745Z,0.57
2024-02-02T15:08:11.718Z,0.95
2024-02-02T15:10:42.416Z,1.38
2024-02-02T15:13:13.413Z,1.48
2024-02-02T15:15:49.566Z,0.90
2024-02-02T15:18:23.574Z,0.73
2024-02-02T15:20:51.781Z,0.70
2024-02-02T15:23:21.940Z,0.90
2024-02-02T15:25:50.244Z,0.88
2024-02-02T15:28:18.453Z,0.88
2024-02-02T15:30:47.162Z,1.65
2024-02-02T15:33:15.520Z,0.77
2024-02-02T15:35:46.499Z,1.30
2024-02-02T15:38:16.792Z,0.55
2024-02-02T15:40:45.571Z,0.88
2024-02-02T15:43:14.336Z,0.80
2024-02-02T15:45:43.571Z,0.95
2024-02-02T15:48:15.127Z,1.50
2024-02-02T15:50:47.469Z,2.50
2024-02-02T15:53:18.607Z,2.30
2024-02-02T15:55:47.898Z,1.67
2024-02-02T15:58:16.299Z,1.10
2024-02-02T16:00:44.760Z,1.30
2024-02-02T16:03:13.318Z,1.80
2024-02-02T16:05:44.413Z,1.17
2024-02-02T16:08:14.791Z,1.40
2024-02-02T16:10:46.495Z,1.10
2024-02-02T16:13:14.850Z,1.10
2024-02-02T16:15:43.349Z,1.30
2024-02-02T16:18:11.766Z,1.05
2024-02-02T16:20:40.791Z,1.17
2024-02-02T16:23:14.894Z,1.33
2024-02-02T16:25:44.937Z,1.10
2024-02-02T16:28:15.381Z,1.50
2024-02-02T16:30:44.588Z,1.02
2024-02-02T16:33:13.696Z,1.20
2024-02-02T16:35:41.897Z,1.10
2024-02-02T16:38:11.446Z,1.90
2024-02-02T16:40:39.912Z,2.10
2024-02-02T16:43:09.771Z,1.70
2024-02-02T16:45:38.403Z,1.83
2024-02-02T16:48:07.261Z,1.20
2024-02-02T16:50:38.469Z,1.70
2024-02-02T16:53:08.347Z,1.85
2024-02-02T16:55:37.929Z,1.27
2024-02-02T16:58:06.415Z,1.90
2024-02-02T17:00:36.221Z,2.10
2024-02-02T17:03:04.808Z,1.58
2024-02-02T17:05:34.142Z,2.03
2024-02-02T17:08:05.030Z,2.20
2024-02-02T17:10:33.460Z,1.98
2024-02-02T17:13:02.281Z,1.60
2024-02-02T17:15:30.871Z,1.60
2024-02-02T17:18:00.780Z,2.10
2024-02-02T17:20:29.354Z,1.77
2024-02-02T17:22:57.595Z,2.75
2024-02-02T17:25:26.947Z,1.77
2024-02-02T17:27:55.298Z,1.60
2024-02-02T17:30:23.757Z,1.80
2024-02-02T17:32:52.016Z,2.10
2024-02-02T17:35:23.311Z,1.92
2024-02-02T17:37:53.141Z,1.70
2024-02-02T17:40:22.764Z,1.63
2024-02-02T17:42:53.800Z,1.80
2024-02-02T17:45:22.152Z,1.60
2024-02-02T17:47:51.640Z,1.75
2024-02-02T17:50:20.125Z,2.58
2024-02-02T17:52:49.931Z,4.90
2024-02-02T17:55:21.331Z,9.00
2024-02-02T17:57:49.582Z,4.95
2024-02-02T18:00:18.417Z,3.13
2024-02-02T18:02:48.717Z,3.33
2024-02-02T18:05:18.649Z,3.22
2024-02-02T18:07:48.279Z,3.17
2024-02-02T18:10:22.507Z,2.58
2024-02-02T18:12:52.408Z,2.40
2024-02-02T18:15:21.521Z,1.83
2024-02-02T18:17:49.863Z,2.55
2024-02-02T18:20:20.314Z,2.50
2024-02-02T18:22:51.671Z,2.50
2024-02-02T18:25:22.898Z,2.47
2024-02-02T18:27:54.458Z,2.17
2024-02-02T18:30:24.835Z,2.50
2024-02-02T18:32:53.266Z,2.50
2024-02-02T18:35:23.931Z,2.05
2024-02-02T18:37:55.026Z,1.90
2024-02-02T18:40:27.556Z,2.35
2024-02-02T18:42:56.043Z,2.60
2024-02-02T18:45:24.383Z,2.10
2024-02-02T18:47:53.558Z,2.25
2024-02-02T18:50:21.876Z,2.92
2024-02-02T18:52:50.803Z,3.47
2024-02-02T18:55:19.420Z,3.00
2024-02-02T18:57:49.382Z,2.50
2024-02-02T19:00:18.466Z,2.00
2024-02-02T19:02:48.125Z,2.60
2024-02-02T19:05:16.705Z,2.83
2024-02-02T19:07:45.189Z,1.92
2024-02-02T19:10:15.551Z,2.30
2024-02-02T19:12:44.024Z,2.70
2024-02-02T19:15:13.866Z,2.47
2024-02-02T19:17:43.973Z,2.25
2024-02-02T19:20:13.294Z,2.28
2024-02-02T19:22:42.667Z,2.30
2024-02-02T19:25:11.280Z,2.58
2024-02-02T19:27:40.834Z,2.42
2024-02-02T19:30:13.545Z,2.50
2024-02-02T19:32:43.983Z,2.50
2024-02-02T19:35:13.615Z,2.25
2024-02-02T19:37:41.943Z,2.60
2024-02-02T19:40:11.644Z,2.50
2024-02-02T19:42:42.843Z,2.78
2024-02-02T19:45:11.655Z,3.28
2024-02-02T19:47:40.287Z,3.53
2024-02-02T19:50:13.194Z,2.70
2024-02-02T19:52:41.314Z,2.42
2024-02-02T19:55:10.105Z,2.00
2024-02-02T19:57:38.286Z,1.95
2024-02-02T20:00:08.506Z,2.00
2024-02-02T20:02:36.829Z,2.20
2024-02-02T20:05:05.152Z,2.08
2024-02-02T20:07:35.509Z,2.00
2024-02-02T20:10:05.059Z,1.60
2024-02-02T20:12:35.268Z,2.00
2024-02-02T20:15:03.775Z,1.40
2024-02-02T20:17:32.024Z,2.13
2024-02-02T20:20:01.625Z,1.70
2024-02-02T20:22:30.117Z,2.20
2024-02-02T20:25:00.942Z,2.03
2024-02-02T20:27:36.634Z,1.63
2024-02-02T20:30:14.462Z,1.88
2024-02-02T20:32:53.955Z,1.85
2024-02-02T20:35:30.810Z,1.98
2024-02-02T20:38:06.555Z,2.40
2024-02-02T20:40:45.700Z,2.58
2024-02-02T20:43:22.309Z,2.22
2024-02-02T20:45:52.411Z,2.53
2024-02-02T20:48:25.247Z,2.97
2024-02-02T20:50:54.141Z,2.22
2024-02-02T20:53:23.255Z,1.92
2024-02-02T20:55:52.937Z,1.80
2024-02-02T20:58:21.149Z,2.42
2024-02-02T21:00:49.536Z,1.92
2024-02-02T21:03:19.506Z,1.80
2024-02-02T21:05:59.956Z,2.28
2024-02-02T21:08:31.430Z,2.33
2024-02-02T21:11:01.426Z,2.10
2024-02-02T21:13:32.870Z,1.88
2024-02-02T21:16:11.828Z,2.00
2024-02-02T21:18:42.228Z,2.10
2024-02-02T21:21:22.441Z,2.20
2024-02-02T21:23:52.243Z,2.00
2024-02-02T21:26:21.880Z,2.10
2024-02-02T21:28:52.973Z,1.98
2024-02-02T21:31:21.120Z,2.00
2024-02-02T21:33:50.834Z,1.80
2024-02-02T21:36:21.279Z,2.03
2024-02-02T21:38:50.633Z,3.35
2024-02-02T21:41:27.571Z,2.08
2024-02-02T21:44:02.397Z,1.30
2024-02-02T21:46:31.155Z,1.60
2024-02-02T21:49:06.439Z,1.83
2024-02-02T21:51:36.698Z,1.70
2024-02-02T21:54:09.635Z,1.70
2024-02-02T21:56:45.470Z,1.63
2024-02-02T21:59:18.567Z,1.92
2024-02-02T22:01:46.899Z,1.70
2024-02-02T22:04:16.427Z,2.00
2024-02-02T22:06:45.851Z,1.50
2024-02-02T22:09:16.190Z,1.70
2024-02-02T22:11:45.997Z,2.42
2024-02-02T22:14:18.928Z,2.80
2024-02-02T22:16:47.052Z,2.10
2024-02-02T22:19:15.620Z,2.40
2024-02-02T22:21:45.228Z,1.92
2024-02-02T22:24:14.803Z,2.03
2024-02-02T22:26:45.466Z,2.20
2024-02-02T22:29:13.682Z,2.20
2024-02-02T22:31:43.439Z,2.00
2024-02-02T22:34:12.952Z,2.25
2024-02-02T22:36:41.637Z,2.22
2024-02-02T22:39:11.002Z,2.83
2024-02-02T22:41:39.407Z,1.95
2024-02-02T22:44:09.213Z,2.22
2024-02-02T22:46:37.508Z,2.13
2024-02-02T22:49:59.915Z,2.80
2024-02-02T22:52:28.269Z,2.70
2024-02-02T22:54:56.879Z,2.50
2024-02-02T22:57:26.299Z,3.20
2024-02-02T23:00:07.017Z,3.30
2024-02-02T23:02:36.423Z,3.13
2024-02-02T23:05:04.808Z,3.20
2024-02-02T23:07:34.039Z,3.25
2024-02-02T23:10:02.238Z,3.15
2024-02-02T23:12:37.554Z,3.47
2024-02-02T23:15:10.413Z,3.70
2024-02-02T23:17:38.675Z,3.17
2024-02-02T23:20:08.167Z,3.67
2024-02-02T23:22:41.613Z,3.50
2024-02-02T23:25:10.478Z,4.20
2024-02-02T23:27:42.990Z,4.10
2024-02-02T23:30:32.567Z,3.78
2024-02-02T23:33:02.290Z,3.70
2024-02-02T23:35:31.223Z,3.92
2024-02-02T23:37:59.439Z,3.70
2024-02-02T23:40:29.002Z,3.72
2024-02-02T23:42:57.609Z,4.03
2024-02-02T23:45:27.755Z,2.90
2024-02-02T23:47:57.329Z,3.33
2024-02-02T23:50:28.255Z,3.33
2024-02-02T23:52:57.358Z,3.35
2024-02-02T23:55:25.935Z,3.38
2024-02-02T23:57:56.176Z,3.33
